Main page
METAR-TAF:

METAR-TAF

Airports :

Juan Manuel Gálvez International Airport

Roatán, Honduras

latitude: 16-19N, longitude: 086-31W, elevation: 5 m

Current weather observation

The report was made 47 minutes ago, at 18:00 UTC
Wind 7 kt from the East/Southeast
Temperature 29°C
Humidity 70%
Pressure 1014 hPa
Visibility 10 km or more
Few clouds at a height of 2000 ft

METAR: MHRO 031800Z 11007KT 9999 FEW020 29/23 Q1014 A2995 NOSIG

Time: 12:47 (18:47 UTC)

Forecast

The report was made 2 hours and 47 minutes ago, at 16:00 UTC
Forecast valid from 03 at 18 UTC to 04 at 18 UTC
Wind 12 kt from the East/Southeast
Visibility 10 km or more
Few clouds at a height of 2800 ft

TAF: MHRO 031600Z 0318/0418 11012KT 9999 FEW028 TX31/0219Z TN26/0412Z

Weather observations and forecasts of more than 4000 airports (METAR and TAF reports).

The available stations are represented by yellow and red dots on the map.

Hover mouse over dot to see the name of the station.

Then click to see weather observations and forecasts.

To change the map : click on the green buttons with a black cross to zoom in, on the green button with a dash to zoom out, or on the green arrows for adjacent maps.


METAR-TAF: